ADDS METAR Data INFO
IDs: Format: Raw Decoded Include TAF

Data at: 0038 UTC 21 Jan 2018

METAR for:KAOH (Lima/Allen Cnty, OH, US)
Text:KAOH 202353Z AUTO 21008KT 10SM OVC019 04/00 A3005 RMK AO2 SLP182 T00440000 10044 20033 51010
Temperature: 4.4°C ( 40°F)
Dewpoint: 0.0°C ( 32°F) [RH = 73%]
Pressure (altimeter):30.05 inches Hg (1017.7 mb) [Sea level pressure: 1018.2 mb]
Winds:from the SSW (210 degrees) at 9 MPH (8 knots; 4.1 m/s)
Visibility:10 or more sm (16+ km)
Ceiling:1900 feet AGL
Clouds: overcast cloud deck at 1900 feet AGL
QC Flag:automated observation with no human augmentation